Time;durP1;ratioP1;P1;durP2;ratioP2;P2;SDS_P1;SDS_P2;PMS_P1;PMS_P2;Temp;Humidity;BMP_temperature;BMP_pressure;BME280_temperature;BME280_humidity;BME280_pressure;Samples;Min_cycle;Max_cycle;Signal;HPM_P1;HPM_P2
2021/01/17 00:01:30;;;;;;;4.38;2.47;;;;;;;;;;4978358;28;20045;-68
2021/01/17 00:03:55;;;;;;;3.15;2.40;;;;;;;;;;5010900;28;20042;-67
2021/01/17 00:06:21;;;;;;;4.18;2.75;;;;;;;;;;5012020;28;20083;-68
2021/01/17 00:08:46;;;;;;;3.90;2.90;;;;;;;;;;4978195;28;20384;-67
2021/01/17 00:11:12;;;;;;;3.38;2.60;;;;;;;;;;5014376;28;20443;-67
2021/01/17 00:13:40;;;;;;;3.17;2.30;;;;;;;;;;5011855;28;20025;-67
2021/01/17 00:16:05;;;;;;;3.03;2.17;;;;;;;;;;4995478;28;20048;-67
2021/01/17 00:18:31;;;;;;;4.43;2.80;;;;;;;;;;4995263;28;20044;-68
2021/01/17 00:20:56;;;;;;;4.00;3.15;;;;;;;;;;5010560;28;20030;-68
2021/01/17 00:23:22;;;;;;;3.80;2.25;;;;;;;;;;5012182;28;20033;-68
2021/01/17 00:25:47;;;;;;;4.38;3.00;;;;;;;;;;5013487;28;20442;-68
2021/01/17 00:28:13;;;;;;;3.63;2.33;;;;;;;;;;5012256;28;20037;-68
2021/01/17 00:30:38;;;;;;;3.83;3.03;;;;;;;;;;5030571;28;20044;-68
2021/01/17 00:33:04;;;;;;;3.60;2.65;;;;;;;;;;5013636;28;20372;-68
2021/01/17 00:35:30;;;;;;;3.90;3.00;;;;;;;;;;4975369;28;20393;-68
2021/01/17 00:37:58;;;;;;;3.85;2.78;;;;;;;;;;4992333;28;20488;-68
2021/01/17 00:40:24;;;;;;;3.88;2.47;;;;;;;;;;5018820;28;20395;-68
2021/01/17 00:42:49;;;;;;;3.83;2.55;;;;;;;;;;5013452;28;20033;-68
2021/01/17 00:45:15;;;;;;;3.45;2.78;;;;;;;;;;5010529;28;20042;-68
2021/01/17 00:47:47;;;;;;;3.30;2.28;;;;;;;;;;4994332;28;20038;-68
2021/01/17 00:50:13;;;;;;;3.25;2.30;;;;;;;;;;5011885;28;20093;-68
2021/01/17 00:52:39;;;;;;;3.15;2.40;;;;;;;;;;5010660;28;20040;-68
2021/01/17 00:55:05;;;;;;;3.78;3.05;;;;;;;;;;5010648;28;20033;-68
2021/01/17 00:57:30;;;;;;;4.10;2.55;;;;;;;;;;5023533;28;20030;-68
2021/01/17 00:59:56;;;;;;;3.25;2.33;;;;;;;;;;4999755;28;20048;-68
2021/01/17 01:02:21;;;;;;;3.40;2.60;;;;;;;;;;5021485;28;20442;-68
2021/01/17 01:04:47;;;;;;;3.35;2.38;;;;;;;;;;5013671;28;20104;-68
2021/01/17 01:07:12;;;;;;;3.30;2.58;;;;;;;;;;5030574;28;20383;-68
2021/01/17 01:09:37;;;;;;;3.80;2.70;;;;;;;;;;5031087;28;20037;-68
2021/01/17 01:12:03;;;;;;;3.10;2.42;;;;;;;;;;5017025;28;20404;-68
2021/01/17 01:14:28;;;;;;;4.28;2.95;;;;;;;;;;4994250;28;20037;-68
2021/01/17 01:16:54;;;;;;;4.07;2.60;;;;;;;;;;4994265;28;20431;-68
2021/01/17 01:19:20;;;;;;;3.85;2.40;;;;;;;;;;5011884;28;20068;-68
2021/01/17 01:21:45;;;;;;;3.40;2.47;;;;;;;;;;5031084;28;20388;-68
2021/01/17 01:24:11;;;;;;;3.28;2.60;;;;;;;;;;5029727;28;20044;-68
2021/01/17 01:26:43;;;;;;;4.72;2.42;;;;;;;;;;5030378;28;20361;-68
2021/01/17 01:29:09;;;;;;;2.60;2.15;;;;;;;;;;4997865;28;20049;-68
2021/01/17 01:31:34;;;;;;;3.17;2.30;;;;;;;;;;4994037;28;20046;-68
2021/01/17 01:34:00;;;;;;;3.00;2.28;;;;;;;;;;4991782;28;20112;-68
2021/01/17 01:36:30;;;;;;;3.22;2.35;;;;;;;;;;4990982;28;20042;-68
2021/01/17 01:38:56;;;;;;;2.88;1.92;;;;;;;;;;4990773;28;20092;-68
2021/01/17 01:41:34;;;;;;;3.67;2.35;;;;;;;;;;5026390;28;20480;-68
2021/01/17 01:44:00;;;;;;;3.88;2.30;;;;;;;;;;5021122;28;20061;-68
2021/01/17 01:46:26;;;;;;;3.53;2.63;;;;;;;;;;4993555;28;20037;-68
2021/01/17 01:48:54;;;;;;;3.20;2.53;;;;;;;;;;5007425;28;20029;-68
2021/01/17 01:51:22;;;;;;;2.80;2.28;;;;;;;;;;5000403;28;20037;-68
2021/01/17 01:53:49;;;;;;;2.85;2.00;;;;;;;;;;5016882;28;20060;-68
2021/01/17 01:56:14;;;;;;;3.15;2.40;;;;;;;;;;5032856;28;20105;-68
2021/01/17 01:58:40;;;;;;;2.90;2.08;;;;;;;;;;5017237;28;20040;-68
2021/01/17 02:01:06;;;;;;;2.80;1.83;;;;;;;;;;5016716;28;20040;-68
2021/01/17 02:03:32;;;;;;;3.38;2.00;;;;;;;;;;5026208;28;20045;-68
2021/01/17 02:05:57;;;;;;;2.78;2.40;;;;;;;;;;5013529;28;20052;-68
2021/01/17 02:09:02;;;;;;;2.72;1.95;;;;;;;;;;5016760;28;20441;-68
2021/01/17 02:11:45;;;;;;;4.10;2.53;;;;;;;;;;5007077;28;20381;-68
2021/01/17 02:14:39;;;;;;;3.05;1.88;;;;;;;;;;5013611;28;20042;-68
2021/01/17 02:17:05;;;;;;;3.47;2.47;;;;;;;;;;5009201;28;20038;-69
2021/01/17 02:19:53;;;;;;;2.63;2.05;;;;;;;;;;4997864;28;20037;-69
2021/01/17 02:22:21;;;;;;;3.30;2.00;;;;;;;;;;4973689;28;20420;-69
2021/01/17 02:24:56;;;;;;;3.42;2.00;;;;;;;;;;4977824;28;20060;-68
2021/01/17 02:27:21;;;;;;;2.65;2.03;;;;;;;;;;4992723;28;20033;-69
2021/01/17 02:29:47;;;;;;;3.03;2.13;;;;;;;;;;4980378;28;20038;-69
2021/01/17 02:32:13;;;;;;;2.90;1.95;;;;;;;;;;4996985;28;20092;-69
2021/01/17 02:34:38;;;;;;;2.85;1.90;;;;;;;;;;4993549;28;20064;-69
2021/01/17 02:37:14;;;;;;;2.97;2.00;;;;;;;;;;4985571;28;20377;-69
2021/01/17 02:39:59;;;;;;;4.15;1.90;;;;;;;;;;4997673;28;20038;-69
2021/01/17 02:42:24;;;;;;;2.85;1.85;;;;;;;;;;4994527;28;20061;-69
2021/01/17 02:44:50;;;;;;;2.95;1.88;;;;;;;;;;5028353;28;20117;-69
2021/01/17 02:47:15;;;;;;;2.70;2.10;;;;;;;;;;5014269;28;20384;-69
2021/01/17 02:49:40;;;;;;;3.05;2.17;;;;;;;;;;4999478;28;20045;-69
2021/01/17 02:52:06;;;;;;;2.55;1.70;;;;;;;;;;5032627;28;20041;-69
2021/01/17 02:54:39;;;;;;;2.67;1.67;;;;;;;;;;5016087;28;20060;-69
2021/01/17 02:57:08;;;;;;;2.92;2.05;;;;;;;;;;5014705;28;20113;-69
2021/01/17 02:59:36;;;;;;;3.22;2.28;;;;;;;;;;5032274;28;20399;-69
2021/01/17 03:02:05;;;;;;;3.00;1.95;;;;;;;;;;5004625;28;20511;-69
2021/01/17 03:04:47;;;;;;;2.45;1.73;;;;;;;;;;4976386;28;20058;-69
2021/01/17 03:07:13;;;;;;;3.38;2.00;;;;;;;;;;4993098;28;20029;-69
2021/01/17 03:09:38;;;;;;;3.17;2.10;;;;;;;;;;5001330;28;20479;-69
2021/01/17 03:12:05;;;;;;;2.25;1.65;;;;;;;;;;4996821;28;20033;-69
2021/01/17 03:14:35;;;;;;;2.88;1.73;;;;;;;;;;5027271;28;20029;-69
2021/01/17 03:17:04;;;;;;;2.30;1.70;;;;;;;;;;4995291;28;20045;-69
2021/01/17 03:19:29;;;;;;;3.33;2.30;;;;;;;;;;4996340;28;20037;-69
2021/01/17 03:21:55;;;;;;;2.53;1.52;;;;;;;;;;5012119;28;20084;-69
2021/01/17 03:24:20;;;;;;;2.47;1.85;;;;;;;;;;5013322;28;20041;-69
2021/01/17 03:26:46;;;;;;;2.63;1.85;;;;;;;;;;4996637;28;20365;-69
2021/01/17 03:29:11;;;;;;;2.97;1.85;;;;;;;;;;5012301;28;20030;-69
2021/01/17 03:31:36;;;;;;;2.63;1.67;;;;;;;;;;4996702;28;20030;-70
2021/01/17 03:34:02;;;;;;;2.40;1.40;;;;;;;;;;5011562;28;20439;-70
2021/01/17 03:36:27;;;;;;;2.28;1.42;;;;;;;;;;4996528;28;20550;-70
2021/01/17 03:38:53;;;;;;;3.35;2.15;;;;;;;;;;4979205;28;20435;-70
2021/01/17 03:41:18;;;;;;;2.80;1.95;;;;;;;;;;4995562;28;20411;-70
2021/01/17 03:43:44;;;;;;;3.25;1.90;;;;;;;;;;4996570;28;20396;-70
2021/01/17 03:46:09;;;;;;;2.78;1.65;;;;;;;;;;4995345;28;20373;-71
2021/01/17 03:48:34;;;;;;;3.55;2.20;;;;;;;;;;5011292;28;20037;-71
2021/01/17 03:51:00;;;;;;;2.65;2.03;;;;;;;;;;4995024;28;20479;-71
2021/01/17 03:53:25;;;;;;;2.70;1.73;;;;;;;;;;5012761;28;20384;-71
2021/01/17 03:55:51;;;;;;;3.05;1.75;;;;;;;;;;5012645;28;20041;-71
2021/01/17 03:58:16;;;;;;;2.83;1.95;;;;;;;;;;4995286;28;20030;-71
2021/01/17 04:00:42;;;;;;;3.13;1.70;;;;;;;;;;5012730;28;20431;-71
2021/01/17 04:03:07;;;;;;;2.90;1.60;;;;;;;;;;5012051;28;20400;-71
2021/01/17 04:05:33;;;;;;;2.55;1.77;;;;;;;;;;4995021;28;20365;-71
2021/01/17 04:07:58;;;;;;;2.70;1.70;;;;;;;;;;4994955;28;20413;-71
2021/01/17 04:10:23;;;;;;;2.28;1.52;;;;;;;;;;4978358;28;20392;-71
2021/01/17 04:12:49;;;;;;;2.20;1.60;;;;;;;;;;5012084;28;20392;-71
2021/01/17 04:15:14;;;;;;;2.35;1.67;;;;;;;;;;5012268;28;20111;-71
2021/01/17 04:17:40;;;;;;;3.45;1.80;;;;;;;;;;4994449;28;20049;-71
2021/01/17 04:20:06;;;;;;;2.50;1.52;;;;;;;;;;5011754;28;20034;-71
2021/01/17 04:22:35;;;;;;;2.45;1.65;;;;;;;;;;5010847;28;20034;-71
2021/01/17 04:25:07;;;;;;;2.58;1.75;;;;;;;;;;4994616;28;20539;-71
2021/01/17 04:27:32;;;;;;;3.13;1.58;;;;;;;;;;4995207;28;20480;-71
2021/01/17 04:29:57;;;;;;;2.33;1.55;;;;;;;;;;5010995;28;20061;-71
2021/01/17 04:32:24;;;;;;;1.83;1.33;;;;;;;;;;5011845;28;20042;-72
2021/01/17 04:34:50;;;;;;;2.17;1.52;;;;;;;;;;5011092;28;20030;-71
2021/01/17 04:37:22;;;;;;;2.08;1.67;;;;;;;;;;5010779;28;20150;-71
2021/01/17 04:39:48;;;;;;;2.45;1.60;;;;;;;;;;5010316;28;20030;-71
2021/01/17 04:42:17;;;;;;;2.67;1.67;;;;;;;;;;5010902;28;20037;-71
2021/01/17 04:44:48;;;;;;;2.42;1.50;;;;;;;;;;4994842;28;20038;-71
2021/01/17 04:47:14;;;;;;;2.55;1.80;;;;;;;;;;4995144;28;20130;-72
2021/01/17 04:49:39;;;;;;;2.33;1.40;;;;;;;;;;4994487;28;20041;-72
2021/01/17 04:52:07;;;;;;;2.50;1.50;;;;;;;;;;4994429;28;20396;-72
2021/01/17 04:54:32;;;;;;;2.38;1.40;;;;;;;;;;4978056;28;20030;-72
2021/01/17 04:57:26;;;;;;;2.28;1.33;;;;;;;;;;4995158;28;20251;-72
2021/01/17 05:00:21;;;;;;;2.08;1.48;;;;;;;;;;5011909;28;20030;-72
2021/01/17 05:03:15;;;;;;;1.95;1.25;;;;;;;;;;5009693;28;20046;-72
2021/01/17 05:05:46;;;;;;;2.03;1.33;;;;;;;;;;4996213;28;20504;-72
2021/01/17 05:08:20;;;;;;;2.20;1.60;;;;;;;;;;5011744;28;20034;-72
2021/01/17 05:10:46;;;;;;;2.65;1.55;;;;;;;;;;5014764;28;20084;-72
2021/01/17 05:13:16;;;;;;;2.13;1.30;;;;;;;;;;4994323;28;20033;-72
2021/01/17 05:15:42;;;;;;;2.83;1.70;;;;;;;;;;4994342;28;20092;-72
2021/01/17 05:18:07;;;;;;;2.25;1.50;;;;;;;;;;4995274;28;20033;-72
2021/01/17 05:20:33;;;;;;;2.10;1.50;;;;;;;;;;5010553;28;20041;-72
2021/01/17 05:22:58;;;;;;;2.13;1.50;;;;;;;;;;4993965;28;20034;-72
2021/01/17 05:25:27;;;;;;;1.92;1.25;;;;;;;;;;4998540;28;20053;-73
2021/01/17 05:27:53;;;;;;;2.05;1.33;;;;;;;;;;5015247;28;20041;-73
2021/01/17 05:30:19;;;;;;;2.40;1.35;;;;;;;;;;5014151;28;20037;-73
2021/01/17 05:32:51;;;;;;;2.63;1.67;;;;;;;;;;5016880;28;20068;-72
2021/01/17 05:35:18;;;;;;;2.95;1.80;;;;;;;;;;5006550;28;20169;-73
2021/01/17 05:37:53;;;;;;;2.35;1.52;;;;;;;;;;5013191;28;20026;-73
2021/01/17 05:40:19;;;;;;;2.78;1.38;;;;;;;;;;4996841;28;20034;-73
2021/01/17 05:42:45;;;;;;;1.95;1.27;;;;;;;;;;4997777;28;20115;-73
2021/01/17 05:45:11;;;;;;;2.30;1.35;;;;;;;;;;4997370;28;20396;-73
2021/01/17 05:47:37;;;;;;;1.88;1.30;;;;;;;;;;5015124;28;20033;-74
2021/01/17 05:50:07;;;;;;;2.33;1.40;;;;;;;;;;4981729;28;20030;-74
2021/01/17 05:52:32;;;;;;;2.08;1.17;;;;;;;;;;4997912;28;20068;-75
2021/01/17 05:54:58;;;;;;;1.90;1.20;;;;;;;;;;5014284;28;20033;-75
2021/01/17 05:57:25;;;;;;;2.22;1.27;;;;;;;;;;4991982;28;20033;-75
2021/01/17 05:59:51;;;;;;;2.25;1.35;;;;;;;;;;5033322;28;20151;-75
2021/01/17 06:02:18;;;;;;;1.88;1.13;;;;;;;;;;5015260;28;20424;-75
2021/01/17 06:04:47;;;;;;;2.30;1.60;;;;;;;;;;5007823;28;20488;-75
2021/01/17 06:07:13;;;;;;;1.85;1.27;;;;;;;;;;5010533;28;20033;-75
2021/01/17 06:09:39;;;;;;;2.22;1.42;;;;;;;;;;5002304;28;20044;-75
2021/01/17 06:12:05;;;;;;;1.83;1.13;;;;;;;;;;5013229;28;20028;-75
2021/01/17 06:14:31;;;;;;;2.13;1.52;;;;;;;;;;5013315;28;20030;-75
2021/01/17 06:16:58;;;;;;;1.92;1.30;;;;;;;;;;5004480;28;20510;-75
2021/01/17 06:19:33;;;;;;;2.05;1.33;;;;;;;;;;5014980;28;20037;-75
2021/01/17 06:22:00;;;;;;;2.22;1.35;;;;;;;;;;5033207;28;20025;-75
2021/01/17 06:24:36;;;;;;;2.33;1.30;;;;;;;;;;5033181;28;20033;-75
2021/01/17 06:27:02;;;;;;;2.38;1.65;;;;;;;;;;5032483;28;20438;-76
2021/01/17 06:29:46;;;;;;;1.98;1.30;;;;;;;;;;5016648;28;20025;-76
2021/01/17 06:32:16;;;;;;;2.38;1.35;;;;;;;;;;5032932;28;20116;-76
2021/01/17 06:34:46;;;;;;;3.30;1.35;;;;;;;;;;4999836;28;20038;-76
2021/01/17 06:37:12;;;;;;;2.03;1.10;;;;;;;;;;5014048;28;20030;-76
2021/01/17 06:39:48;;;;;;;1.67;1.05;;;;;;;;;;4996819;28;20041;-76
2021/01/17 06:42:14;;;;;;;2.22;1.10;;;;;;;;;;4996870;28;20033;-76
2021/01/17 06:44:40;;;;;;;2.15;1.27;;;;;;;;;;4996844;28;20519;-76
2021/01/17 06:47:16;;;;;;;2.00;1.10;;;;;;;;;;4996843;28;20033;-76
2021/01/17 06:49:42;;;;;;;2.20;1.42;;;;;;;;;;4997014;28;20561;-76
2021/01/17 06:52:08;;;;;;;2.17;1.23;;;;;;;;;;4980476;28;20026;-76
2021/01/17 06:54:54;;;;;;;2.40;1.38;;;;;;;;;;4980343;28;20488;-76
2021/01/17 06:57:20;;;;;;;1.83;0.98;;;;;;;;;;4995882;28;20076;-75
2021/01/17 06:59:46;;;;;;;2.33;1.38;;;;;;;;;;4996417;28;20057;-75
2021/01/17 07:02:14;;;;;;;2.55;1.17;;;;;;;;;;5012325;28;20045;-76
2021/01/17 07:04:52;;;;;;;2.72;1.20;;;;;;;;;;5013512;28;20057;-75
2021/01/17 07:07:55;;;;;;;2.40;1.30;;;;;;;;;;5013722;28;20038;-76
2021/01/17 07:10:21;;;;;;;;;;;;;;;;;;5014413;28;20042;-76
2021/01/17 07:13:02;;;;;;;2.47;1.48;;;;;;;;;;5013146;28;19967;-76
2021/01/17 07:15:29;;;;;;;2.60;1.60;;;;;;;;;;5014208;28;20026;-76
2021/01/17 07:18:14;;;;;;;2.35;1.48;;;;;;;;;;5012216;28;20034;-76
2021/01/17 07:20:46;;;;;;;2.22;1.50;;;;;;;;;;5012429;28;20030;-76
2021/01/17 07:23:15;;;;;;;;;;;;;;;;;;5012631;28;20048;-76
2021/01/17 07:25:48;;;;;;;2.17;1.48;;;;;;;;;;5012072;28;19917;-78
2021/01/17 07:28:20;;;;;;;3.85;1.73;;;;;;;;;;4979467;28;20037;-77
2021/01/17 07:30:58;;;;;;;2.63;1.52;;;;;;;;;;4979800;28;20026;-77
2021/01/17 07:33:36;;;;;;;2.78;1.85;;;;;;;;;;5011650;28;20042;-77
2021/01/17 07:36:03;;;;;;;4.68;1.70;;;;;;;;;;4995321;28;20062;-76
2021/01/17 07:38:33;;;;;;;3.20;1.70;;;;;;;;;;4990127;28;20150;-76
2021/01/17 07:41:10;;;;;;;4.35;1.92;;;;;;;;;;4999371;28;20032;-76
2021/01/17 07:43:58;;;;;;;6.45;2.58;;;;;;;;;;4995651;28;20057;-76
2021/01/17 07:46:23;;;;;;;6.80;2.50;;;;;;;;;;4978395;28;20092;-76
2021/01/17 07:48:49;;;;;;;5.30;2.38;;;;;;;;;;5011660;28;20484;-76
2021/01/17 07:51:15;;;;;;;4.90;2.00;;;;;;;;;;4979567;28;20030;-76
2021/01/17 07:53:49;;;;;;;5.10;2.08;;;;;;;;;;5011898;28;20109;-76
2021/01/17 07:56:15;;;;;;;3.40;2.00;;;;;;;;;;5012500;28;20034;-76
2021/01/17 07:58:44;;;;;;;4.70;2.20;;;;;;;;;;4995013;28;20042;-76
2021/01/17 08:01:35;;;;;;;5.75;2.00;;;;;;;;;;5011925;28;20434;-76
2021/01/17 08:04:03;;;;;;;2.40;1.77;;;;;;;;;;4991982;28;20381;-76
2021/01/17 08:06:47;;;;;;;5.32;2.35;;;;;;;;;;5009856;28;20041;-76
2021/01/17 08:09:20;;;;;;;5.78;2.40;;;;;;;;;;4998193;28;20037;-76
2021/01/17 08:11:46;;;;;;;3.05;2.13;;;;;;;;;;4979593;28;20056;-76
2021/01/17 08:14:24;;;;;;;4.32;2.20;;;;;;;;;;5012687;28;20061;-76
2021/01/17 08:17:12;;;;;;;3.70;2.10;;;;;;;;;;4995268;28;20037;-76
2021/01/17 08:19:38;;;;;;;5.40;2.40;;;;;;;;;;4995307;28;20418;-76
2021/01/17 08:22:16;;;;;;;3.55;2.00;;;;;;;;;;4994872;28;20136;-76
2021/01/17 08:24:41;;;;;;;3.45;2.33;;;;;;;;;;5012181;28;20056;-74
2021/01/17 08:27:06;;;;;;;3.63;2.10;;;;;;;;;;4994049;28;20476;-74
2021/01/17 08:29:32;;;;;;;4.18;1.83;;;;;;;;;;4994522;28;20026;-74
2021/01/17 08:31:57;;;;;;;4.05;1.92;;;;;;;;;;4993733;28;20065;-75
2021/01/17 08:34:27;;;;;;;3.75;2.33;;;;;;;;;;4978351;28;20120;-75
2021/01/17 08:36:53;;;;;;;5.50;2.00;;;;;;;;;;4990856;28;20083;-75
2021/01/17 08:39:45;;;;;;;4.38;1.85;;;;;;;;;;4975099;28;20135;-75
2021/01/17 08:42:27;;;;;;;5.47;2.45;;;;;;;;;;4984640;28;20042;-75
2021/01/17 08:44:53;;;;;;;4.10;1.73;;;;;;;;;;4994854;28;20037;-74
2021/01/17 08:47:19;;;;;;;5.75;1.80;;;;;;;;;;5015392;28;20262;-74
2021/01/17 08:49:45;;;;;;;9.52;2.10;;;;;;;;;;4994765;28;20029;-74
2021/01/17 08:52:11;;;;;;;4.53;2.05;;;;;;;;;;5011280;28;20127;-74
2021/01/17 08:54:49;;;;;;;4.40;2.00;;;;;;;;;;4990946;28;20377;-74
2021/01/17 08:57:42;;;;;;;4.85;2.53;;;;;;;;;;4959679;28;20038;-74
2021/01/17 09:00:11;;;;;;;;;;;;;;;;;;4991550;28;20045;-74
2021/01/17 09:02:37;;;;;;;5.50;2.00;;;;;;;;;;5019695;28;19927;-75
2021/01/17 09:05:03;;;;;;;10.43;1.90;;;;;;;;;;5030404;28;20030;-75
2021/01/17 09:07:35;;;;;;;3.78;1.60;;;;;;;;;;5031411;28;20032;-74
2021/01/17 09:10:04;;;;;;;;;;;;;;;;;;4990932;28;20878;-74
2021/01/17 09:12:29;;;;;;;8.15;2.28;;;;;;;;;;5010637;28;19937;-74
2021/01/17 09:14:55;;;;;;;4.75;1.95;;;;;;;;;;4997450;28;20475;-74
2021/01/17 09:17:20;;;;;;;5.65;2.03;;;;;;;;;;4994335;28;20420;-74
2021/01/17 09:19:45;;;;;;;5.72;2.67;;;;;;;;;;4993983;28;20041;-74
2021/01/17 09:22:11;;;;;;;5.68;1.88;;;;;;;;;;4990065;28;20053;-74
2021/01/17 09:24:37;;;;;;;6.43;2.45;;;;;;;;;;4991682;28;20042;-74
2021/01/17 09:27:04;;;;;;;7.45;2.38;;;;;;;;;;5006897;28;20038;-73
2021/01/17 09:29:31;;;;;;;7.68;3.05;;;;;;;;;;4998169;28;20096;-73
2021/01/17 09:32:06;;;;;;;5.93;2.65;;;;;;;;;;4994313;28;20096;-73
2021/01/17 09:34:34;;;;;;;7.30;2.17;;;;;;;;;;5011507;28;20041;-73
2021/01/17 09:37:00;;;;;;;5.00;2.28;;;;;;;;;;5009817;28;20037;-73
2021/01/17 09:39:34;;;;;;;6.68;2.45;;;;;;;;;;5005053;28;20112;-72
2021/01/17 09:41:59;;;;;;;6.78;2.33;;;;;;;;;;5013695;28;20052;-72
2021/01/17 09:44:25;;;;;;;7.55;2.38;;;;;;;;;;5024393;28;20049;-72
2021/01/17 09:46:50;;;;;;;9.07;2.70;;;;;;;;;;5000126;28;20036;-71
2021/01/17 09:49:23;;;;;;;9.23;2.53;;;;;;;;;;5026174;28;20037;-71
2021/01/17 09:51:49;;;;;;;4.72;2.17;;;;;;;;;;5029808;28;20041;-71
2021/01/17 09:54:14;;;;;;;7.13;2.40;;;;;;;;;;5030087;28;20171;-71
2021/01/17 09:56:41;;;;;;;9.65;3.30;;;;;;;;;;5030283;28;20064;-71
2021/01/17 09:59:13;;;;;;;4.55;2.17;;;;;;;;;;5030974;28;20095;-71
2021/01/17 10:01:38;;;;;;;;;;;;;;;;;;5030936;28;20426;-71
2021/01/17 10:04:04;;;;;;;6.68;2.38;;;;;;;;;;5029833;28;19909;-71
2021/01/17 10:06:32;;;;;;;8.00;2.65;;;;;;;;;;5011433;28;20041;-71
2021/01/17 10:08:58;;;;;;;8.20;2.78;;;;;;;;;;5030007;28;20025;-70
2021/01/17 10:11:23;;;;;;;6.05;3.03;;;;;;;;;;4984398;28;20044;-70
2021/01/17 10:13:48;;;;;;;8.73;3.30;;;;;;;;;;4997876;28;20036;-70
2021/01/17 10:16:26;;;;;;;6.95;2.75;;;;;;;;;;5014647;28;20034;-70
2021/01/17 10:18:51;;;;;;;6.43;2.55;;;;;;;;;;5014525;28;20057;-69
2021/01/17 10:21:18;;;;;;;8.93;3.00;;;;;;;;;;5013240;28;20480;-70
2021/01/17 10:23:43;;;;;;;9.27;2.92;;;;;;;;;;5014645;28;20034;-69
2021/01/17 10:26:09;;;;;;;6.45;2.80;;;;;;;;;;5013179;28;20399;-69
2021/01/17 10:28:34;;;;;;;6.10;2.28;;;;;;;;;;4997095;28;20037;-69
2021/01/17 10:31:00;;;;;;;7.95;2.90;;;;;;;;;;4997003;28;20042;-69
2021/01/17 10:33:28;;;;;;;8.70;2.90;;;;;;;;;;5012791;28;20423;-69
2021/01/17 10:35:54;;;;;;;9.55;3.00;;;;;;;;;;5013181;28;20038;-71
2021/01/17 10:38:20;;;;;;;12.68;2.97;;;;;;;;;;5014335;28;20189;-71
2021/01/17 10:40:46;;;;;;;8.50;2.38;;;;;;;;;;4998240;28;20534;-71
2021/01/17 10:43:30;;;;;;;9.68;2.95;;;;;;;;;;4996943;28;20029;-71
2021/01/17 10:46:15;;;;;;;10.23;2.45;;;;;;;;;;5012663;28;20033;-70
2021/01/17 10:48:51;;;;;;;7.68;2.80;;;;;;;;;;5012790;28;20480;-68
2021/01/17 10:51:19;;;;;;;12.65;3.67;;;;;;;;;;4996500;28;20041;-68
2021/01/17 10:53:49;;;;;;;7.28;3.05;;;;;;;;;;4996425;28;20034;-68
2021/01/17 10:56:19;;;;;;;11.70;3.70;;;;;;;;;;4997063;28;20064;-68
2021/01/17 10:58:44;;;;;;;7.38;2.88;;;;;;;;;;4996734;28;20026;-68
2021/01/17 11:01:10;;;;;;;13.32;3.30;;;;;;;;;;4996126;28;20424;-69
2021/01/17 11:03:40;;;;;;;7.18;2.92;;;;;;;;;;5003132;28;20030;-69
2021/01/17 11:06:19;;;;;;;8.65;3.13;;;;;;;;;;4996137;28;20042;-69
2021/01/17 11:08:46;;;;;;;8.63;3.22;;;;;;;;;;5012508;28;20040;-69
2021/01/17 11:11:11;;;;;;;7.35;2.97;;;;;;;;;;5019760;28;20389;-68
2021/01/17 11:13:37;;;;;;;7.63;2.40;;;;;;;;;;4996474;28;20030;-68
2021/01/17 11:16:03;;;;;;;7.00;3.05;;;;;;;;;;5012633;28;20587;-68
2021/01/17 11:18:29;;;;;;;6.15;2.58;;;;;;;;;;5011763;28;20025;-68
2021/01/17 11:21:01;;;;;;;6.68;3.00;;;;;;;;;;5013783;28;20042;-68
2021/01/17 11:23:27;;;;;;;;;;;;;;;;;;4997070;28;20057;-68
2021/01/17 11:26:04;;;;;;;7.57;2.75;;;;;;;;;;5013463;28;19909;-68
2021/01/17 11:28:30;;;;;;;18.23;3.95;;;;;;;;;;5013379;28;20113;-68
2021/01/17 11:31:16;;;;;;;7.70;3.03;;;;;;;;;;5012018;28;20033;-68
2021/01/17 11:33:43;;;;;;;8.38;3.65;;;;;;;;;;5021516;28;20103;-69
2021/01/17 11:36:08;;;;;;;7.93;2.58;;;;;;;;;;5014347;28;20025;-68
2021/01/17 11:38:46;;;;;;;8.57;3.25;;;;;;;;;;5013111;28;20060;-68
2021/01/17 11:41:16;;;;;;;6.57;2.67;;;;;;;;;;5012159;28;20072;-68
2021/01/17 11:43:41;;;;;;;6.15;2.67;;;;;;;;;;4995864;28;20065;-68
2021/01/17 11:46:07;;;;;;;8.65;3.10;;;;;;;;;;4992017;28;20030;-68
2021/01/17 11:48:33;;;;;;;8.60;3.05;;;;;;;;;;4992277;28;20357;-68
2021/01/17 11:50:58;;;;;;;8.85;3.40;;;;;;;;;;4992192;28;20037;-68
2021/01/17 11:53:27;;;;;;;6.88;3.15;;;;;;;;;;5008924;28;20038;-68
2021/01/17 11:55:53;;;;;;;7.85;2.60;;;;;;;;;;4993015;28;20514;-68
2021/01/17 11:58:18;;;;;;;5.47;2.80;;;;;;;;;;5007812;28;20045;-68
2021/01/17 12:00:47;;;;;;;6.30;2.75;;;;;;;;;;5012187;28;20030;-68
2021/01/17 12:03:23;;;;;;;6.13;2.55;;;;;;;;;;5022558;28;20046;-68
2021/01/17 12:06:01;;;;;;;6.78;2.75;;;;;;;;;;4994451;28;20056;-68
2021/01/17 12:08:49;;;;;;;8.38;3.10;;;;;;;;;;5009920;28;20403;-68
2021/01/17 12:11:30;;;;;;;7.10;2.55;;;;;;;;;;5010690;28;20060;-68
2021/01/17 12:13:55;;;;;;;7.70;2.90;;;;;;;;;;5011567;28;20049;-68
2021/01/17 12:16:30;;;;;;;9.57;3.33;;;;;;;;;;5010277;28;20471;-68
2021/01/17 12:18:56;;;;;;;5.80;2.22;;;;;;;;;;5011488;28;20041;-68
2021/01/17 12:21:23;;;;;;;9.60;2.88;;;;;;;;;;4994754;28;20037;-68
2021/01/17 12:23:48;;;;;;;8.75;2.42;;;;;;;;;;4994432;28;20061;-68
2021/01/17 12:26:15;;;;;;;7.93;2.55;;;;;;;;;;4994484;28;20435;-68
2021/01/17 12:28:41;;;;;;;7.50;2.90;;;;;;;;;;5010788;28;20044;-68
2021/01/17 12:31:13;;;;;;;8.10;2.72;;;;;;;;;;5010770;28;20049;-68
2021/01/17 12:33:39;;;;;;;;;;;;;;;;;;5010921;28;20261;-68
2021/01/17 12:36:06;;;;;;;12.88;3.17;;;;;;;;;;5010498;28;20043;-68
2021/01/17 12:38:32;;;;;;;8.63;3.00;;;;;;;;;;5007926;28;20037;-68
2021/01/17 12:40:57;;;;;;;10.57;2.90;;;;;;;;;;5026779;28;20036;-68
2021/01/17 12:43:23;;;;;;;8.32;2.75;;;;;;;;;;5031647;28;20026;-69
2021/01/17 12:45:48;;;;;;;11.07;3.60;;;;;;;;;;5030261;28;20069;-68
2021/01/17 12:48:13;;;;;;;7.95;1.98;;;;;;;;;;5021670;28;20532;-69
2021/01/17 12:50:39;;;;;;;8.48;3.90;;;;;;;;;;5011795;28;20041;-69
2021/01/17 12:53:04;;;;;;;6.47;2.70;;;;;;;;;;4994206;28;20033;-69
2021/01/17 12:55:30;;;;;;;9.40;3.10;;;;;;;;;;5011927;28;20033;-69
2021/01/17 12:57:55;;;;;;;8.13;3.55;;;;;;;;;;5011610;28;20083;-69
2021/01/17 13:00:21;;;;;;;11.88;3.80;;;;;;;;;;5011403;28;20034;-69
2021/01/17 13:02:46;;;;;;;9.40;4.05;;;;;;;;;;5022804;28;20404;-69
2021/01/17 13:05:12;;;;;;;8.75;4.10;;;;;;;;;;5031434;28;20100;-69
2021/01/17 13:07:37;;;;;;;10.43;4.00;;;;;;;;;;5030681;28;20068;-69
2021/01/17 13:10:03;;;;;;;10.02;3.85;;;;;;;;;;5031222;28;20063;-69
2021/01/17 13:12:28;;;;;;;8.30;3.20;;;;;;;;;;5010698;28;20391;-69
2021/01/17 13:14:54;;;;;;;9.00;3.17;;;;;;;;;;4977715;28;20036;-69
2021/01/17 13:17:19;;;;;;;10.00;4.22;;;;;;;;;;5010283;28;20042;-69
2021/01/17 13:19:44;;;;;;;14.82;3.88;;;;;;;;;;5011346;28;20033;-69
2021/01/17 13:22:10;;;;;;;10.25;3.85;;;;;;;;;;5011538;28;20034;-69
2021/01/17 13:24:35;;;;;;;9.88;3.65;;;;;;;;;;5010671;28;20391;-69
2021/01/17 13:27:01;;;;;;;11.13;3.95;;;;;;;;;;4993708;28;20129;-69
2021/01/17 13:29:26;;;;;;;12.40;3.92;;;;;;;;;;5011278;28;20030;-69
2021/01/17 13:31:52;;;;;;;13.20;4.00;;;;;;;;;;5010300;28;20061;-68
2021/01/17 13:34:19;;;;;;;14.63;4.25;;;;;;;;;;5011415;28;20388;-69
2021/01/17 13:36:44;;;;;;;18.25;3.35;;;;;;;;;;4995213;28;20376;-68
2021/01/17 13:39:10;;;;;;;10.63;3.20;;;;;;;;;;5031341;28;20113;-69
2021/01/17 13:41:35;;;;;;;10.20;4.60;;;;;;;;;;5030096;28;20044;-68
2021/01/17 13:44:00;;;;;;;10.38;4.10;;;;;;;;;;5031320;28;20025;-68
2021/01/17 13:46:26;;;;;;;15.55;3.72;;;;;;;;;;5034906;28;20045;-69
2021/01/17 13:48:51;;;;;;;10.13;3.17;;;;;;;;;;5017232;28;20029;-69
2021/01/17 13:51:17;;;;;;;9.77;3.00;;;;;;;;;;5033842;28;20034;-69
2021/01/17 13:53:42;;;;;;;10.73;2.88;;;;;;;;;;5035294;28;20037;-69
2021/01/17 13:56:08;;;;;;;7.95;2.75;;;;;;;;;;5033543;28;20041;-68
2021/01/17 13:58:33;;;;;;;11.35;2.97;;;;;;;;;;5034461;28;20040;-68
2021/01/17 14:00:58;;;;;;;12.13;3.63;;;;;;;;;;5016756;28;20411;-68
2021/01/17 14:03:24;;;;;;;9.88;3.60;;;;;;;;;;4979516;28;20045;-68
2021/01/17 14:05:49;;;;;;;12.20;3.58;;;;;;;;;;4996097;28;20129;-68
2021/01/17 14:08:15;;;;;;;15.27;3.38;;;;;;;;;;5014907;28;20076;-69
2021/01/17 14:10:40;;;;;;;11.15;3.80;;;;;;;;;;5022129;28;20037;-69
2021/01/17 14:13:06;;;;;;;15.88;4.20;;;;;;;;;;5016028;28;20029;-69
2021/01/17 14:15:31;;;;;;;12.02;3.25;;;;;;;;;;5024359;28;20113;-69
2021/01/17 14:17:58;;;;;;;11.75;3.08;;;;;;;;;;5014667;28;20434;-69
2021/01/17 14:20:25;;;;;;;13.25;3.22;;;;;;;;;;5013181;28;20034;-69
2021/01/17 14:22:50;;;;;;;8.80;2.25;;;;;;;;;;5013407;28;20029;-69
2021/01/17 14:25:16;;;;;;;9.68;2.88;;;;;;;;;;4997352;28;20033;-69
2021/01/17 14:27:42;;;;;;;9.73;3.33;;;;;;;;;;5011267;28;20030;-69
2021/01/17 14:30:07;;;;;;;7.93;2.40;;;;;;;;;;5021207;28;20120;-69
2021/01/17 14:32:33;;;;;;;7.72;2.10;;;;;;;;;;5021849;28;20125;-69
2021/01/17 14:34:58;;;;;;;11.25;3.33;;;;;;;;;;5018113;28;20117;-69
2021/01/17 14:37:24;;;;;;;11.43;2.97;;;;;;;;;;5019752;28;20040;-69
2021/01/17 14:39:49;;;;;;;8.70;2.75;;;;;;;;;;5020939;28;20038;-69
2021/01/17 14:42:15;;;;;;;6.20;2.40;;;;;;;;;;5022414;28;20041;-69
2021/01/17 14:44:40;;;;;;;5.65;2.22;;;;;;;;;;5013020;28;20385;-69
2021/01/17 14:47:05;;;;;;;7.05;2.65;;;;;;;;;;5013152;28;20040;-69
2021/01/17 14:49:31;;;;;;;8.75;2.55;;;;;;;;;;4996530;28;20037;-69
2021/01/17 14:51:57;;;;;;;6.95;2.78;;;;;;;;;;5014288;28;20472;-69